Terminal Aerodrome Forecast
Issued by NWS Denver/Boulder, CO

Home | Current Version | Previous Version | Text Only | Print | Product List | Glossary On
Versions: 1 2 3 4 5 6 7 8 9 10 11 12 13 14 15 16 17 18 19 20 21 22 23 24 25 26 27 28 29 30 31 32 33 34 35 36 37 38 39 40 41 42 43 44 45 46 47 48 49 50
234
FTUS45 KBOU 251732
TAFDEN
TAF
KDEN 251732Z 2518/2624 11006KT P6SM FEW100 FEW220
     FM252000 04010KT P6SM FEW100 FEW220
     FM260200 15012G20KT P6SM SCT090 BKN150
     FM260400 18012KT P6SM FEW090 BKN150
     FM260700 21012KT P6SM FEW140 SCT200
     FM261600 VRB05KT P6SM SCT200
     FM262100 01006KT P6SM SCT090 BKN140 PROB30 2621/2624 VRB20G35KT
      -TSRA BKN070CB=

USA.gov is the U.S. government's official web portal to all federal, state and local government web resources and services.